Time,TemperatureF,DewpointF,PressureIn,WindDirection,WindDirectionDegrees,WindSpeedMPH,WindSpeedGustMPH,Humidity,HourlyPrecipIn,Conditions,Clouds,dailyrainin,SoftwareType,DateUTC
2013-02-21 00:05:00,21.7,14.1,30.05,NNE,22,1.7,-999.0,72,-99.99,,,0.00,Acu-Link.com,2013-02-21 05:05:00,
2013-02-21 00:20:00,21.4,14.1,30.04,NNE,22,2.2,-999.0,73,-99.99,,,0.00,Acu-Link.com,2013-02-21 05:20:00,
2013-02-21 00:35:00,21.4,14.1,30.03,East,90,1.7,-999.0,73,-99.99,,,0.00,Acu-Link.com,2013-02-21 05:35:00,
2013-02-21 00:51:00,21.0,13.7,30.04,NNE,22,1.7,-999.0,73,-99.99,,,0.00,Acu-Link.com,2013-02-21 05:51:00,
2013-02-21 01:06:00,20.8,13.5,30.05,NE,45,1.7,-999.0,73,-99.99,,,0.00,Acu-Link.com,2013-02-21 06:06:00,
2013-02-21 01:21:00,20.5,13.6,30.06,NE,45,1.7,-999.0,74,-99.99,,,0.00,Acu-Link.com,2013-02-21 06:21:00,
2013-02-21 01:37:00,20.1,13.5,30.06,NNE,22,0.0,-999.0,75,-99.99,,,0.00,Acu-Link.com,2013-02-21 06:37:00,
2013-02-21 01:52:00,19.9,13.6,30.06,NNE,22,2.2,-999.0,76,-99.99,,,0.00,Acu-Link.com,2013-02-21 06:52:00,
2013-02-21 02:07:00,20.1,13.8,30.07,East,90,1.7,-999.0,76,-99.99,,,0.00,Acu-Link.com,2013-02-21 07:07:00,
2013-02-21 02:22:00,19.8,13.5,30.07,NNE,22,1.7,-999.0,76,-99.99,,,0.00,Acu-Link.com,2013-02-21 07:22:00,
2013-02-21 02:38:00,19.4,13.4,30.06,NNE,22,0.0,-999.0,77,-99.99,,,0.00,Acu-Link.com,2013-02-21 07:38:00,
2013-02-21 02:53:00,18.9,13.5,30.06,ENE,67,0.0,-999.0,79,-99.99,,,0.00,Acu-Link.com,2013-02-21 07:53:00,
2013-02-21 03:08:00,18.9,13.5,30.05,NE,45,1.7,-999.0,79,-99.99,,,0.00,Acu-Link.com,2013-02-21 08:08:00,
2013-02-21 03:24:00,18.9,13.8,30.05,NNE,22,1.7,-999.0,80,-99.99,,,0.00,Acu-Link.com,2013-02-21 08:24:00,
2013-02-21 03:39:00,18.7,13.9,30.06,NNE,22,2.2,-999.0,81,-99.99,,,0.00,Acu-Link.com,2013-02-21 08:39:00,
2013-02-21 03:54:00,18.3,13.5,30.05,NE,45,0.0,-999.0,81,-99.99,,,0.00,Acu-Link.com,2013-02-21 08:54:00,
2013-02-21 04:21:00,18.1,13.5,30.04,East,90,1.7,-999.0,82,-99.99,,,0.00,Acu-Link.com,2013-02-21 09:21:00,
2013-02-21 04:36:00,17.8,13.8,30.05,NE,45,0.0,-999.0,84,-99.99,,,0.00,Acu-Link.com,2013-02-21 09:36:00,
2013-02-21 04:52:00,17.6,13.6,30.05,ESE,112,0.0,-999.0,84,-99.99,,,0.00,Acu-Link.com,2013-02-21 09:52:00,
2013-02-21 05:07:00,17.4,13.7,30.05,ESE,112,0.0,-999.0,85,-99.99,,,0.00,Acu-Link.com,2013-02-21 10:07:00,
2013-02-21 05:22:00,17.6,13.9,30.06,East,90,0.0,-999.0,85,-99.99,,,0.00,Acu-Link.com,2013-02-21 10:22:00,
2013-02-21 05:37:00,17.6,13.9,30.07,NNW,337,2.2,-999.0,85,-99.99,,,0.00,Acu-Link.com,2013-02-21 10:37:00,
2013-02-21 05:52:00,17.1,13.6,30.08,NNE,22,0.0,-999.0,86,-99.99,,,0.00,Acu-Link.com,2013-02-21 10:52:00,
2013-02-21 06:08:00,16.7,13.5,30.09,East,90,0.0,-999.0,87,-99.99,,,0.00,Acu-Link.com,2013-02-21 11:08:00,
2013-02-21 06:23:00,16.5,13.8,30.08,NNE,22,0.0,-999.0,89,-99.99,,,0.00,Acu-Link.com,2013-02-21 11:23:00,
2013-02-21 06:38:00,16.5,13.8,30.08,East,90,2.2,-999.0,89,-99.99,,,0.00,Acu-Link.com,2013-02-21 11:38:00,
2013-02-21 06:53:00,17.1,14.2,30.08,NNE,22,3.7,-999.0,88,-99.99,,,0.00,Acu-Link.com,2013-02-21 11:53:00,
2013-02-21 07:08:00,17.1,14.2,30.07,NNW,337,2.7,-999.0,88,-99.99,,,0.00,Acu-Link.com,2013-02-21 12:08:00,
2013-02-21 07:24:00,17.1,14.2,30.10,NNE,22,2.7,-999.0,88,-99.99,,,0.00,Acu-Link.com,2013-02-21 12:24:00,
2013-02-21 07:39:00,17.2,14.3,30.10,North,0,2.7,-999.0,88,-99.99,,,0.00,Acu-Link.com,2013-02-21 12:39:00,
2013-02-21 07:54:00,18.3,15.1,30.10,North,0,4.2,-999.0,87,-99.99,,,0.00,Acu-Link.com,2013-02-21 12:54:00,
2013-02-21 08:09:00,19.4,15.4,30.10,North,0,2.2,-999.0,84,-99.99,,,0.00,Acu-Link.com,2013-02-21 13:09:00,
2013-02-21 08:25:00,19.8,16.0,30.09,NE,45,3.7,-999.0,85,-99.99,,,0.00,Acu-Link.com,2013-02-21 13:25:00,
2013-02-21 08:40:00,20.5,16.2,30.09,East,90,2.7,-999.0,83,-99.99,,,0.00,Acu-Link.com,2013-02-21 13:40:00,
2013-02-21 08:55:00,21.4,16.5,30.09,East,90,3.2,-999.0,81,-99.99,,,0.00,Acu-Link.com,2013-02-21 13:55:00,
2013-02-21 09:11:00,22.3,16.5,30.10,East,90,4.2,-999.0,78,-99.99,,,0.00,Acu-Link.com,2013-02-21 14:11:00,
2013-02-21 09:26:00,23.9,17.5,30.10,NE,45,4.7,-999.0,76,-99.99,,,0.00,Acu-Link.com,2013-02-21 14:26:00,
2013-02-21 09:41:00,24.1,17.3,30.09,NNE,22,4.2,-999.0,75,-99.99,,,0.00,Acu-Link.com,2013-02-21 14:41:00,
2013-02-21 09:56:00,25.0,17.6,30.08,NNW,337,4.2,-999.0,73,-99.99,,,0.00,Acu-Link.com,2013-02-21 14:56:00,
2013-02-21 10:12:00,25.7,17.6,30.09,East,90,4.7,-999.0,71,-99.99,,,0.00,Acu-Link.com,2013-02-21 15:12:00,
2013-02-21 10:27:00,25.5,17.4,30.07,NE,45,7.3,-999.0,71,-99.99,,,0.00,Acu-Link.com,2013-02-21 15:27:00,
2013-02-21 10:42:00,27.1,18.3,30.05,ENE,67,4.2,-999.0,69,-99.99,,,0.00,Acu-Link.com,2013-02-21 15:42:00,
2013-02-21 10:57:00,28.6,19.1,30.05,West,270,4.7,-999.0,67,-99.99,,,0.00,Acu-Link.com,2013-02-21 15:57:00,
2013-02-21 11:12:00,29.5,19.6,30.04,ENE,67,3.2,-999.0,66,-99.99,,,0.00,Acu-Link.com,2013-02-21 16:12:00,
2013-02-21 11:27:00,29.5,19.6,30.03,WSW,247,4.2,-999.0,66,-99.99,,,0.00,Acu-Link.com,2013-02-21 16:27:00,
2013-02-21 11:43:00,32.0,21.2,30.04,ESE,112,5.3,-999.0,64,-99.99,,,0.00,Acu-Link.com,2013-02-21 16:43:00,
2013-02-21 11:58:00,30.7,19.6,30.03,West,270,3.7,-999.0,63,-99.99,,,0.00,Acu-Link.com,2013-02-21 16:58:00,
2013-02-21 12:28:00,32.9,20.9,30.03,West,270,3.2,-999.0,61,-99.99,,,0.00,Acu-Link.com,2013-02-21 17:28:00,
2013-02-21 12:43:00,34.2,19.7,30.02,East,90,3.7,-999.0,55,-99.99,,,0.00,Acu-Link.com,2013-02-21 17:43:00,
2013-02-21 12:58:00,34.0,20.8,30.00,NE,45,5.8,-999.0,58,-99.99,,,0.00,Acu-Link.com,2013-02-21 17:58:00,
2013-02-21 13:14:00,34.7,21.0,29.98,NE,45,2.7,-999.0,57,-99.99,,,0.00,Acu-Link.com,2013-02-21 18:14:00,
2013-02-21 13:29:00,34.9,20.8,29.97,NE,45,4.7,-999.0,56,-99.99,,,0.00,Acu-Link.com,2013-02-21 18:29:00,
2013-02-21 13:44:00,35.1,21.4,29.98,ESE,112,6.8,-999.0,57,-99.99,,,0.00,Acu-Link.com,2013-02-21 18:44:00,
2013-02-21 13:59:00,35.6,21.5,29.98,NW,315,5.3,-999.0,56,-99.99,,,0.00,Acu-Link.com,2013-02-21 18:59:00,
2013-02-21 14:14:00,35.8,22.1,29.97,NNE,22,2.7,-999.0,57,-99.99,,,0.00,Acu-Link.com,2013-02-21 19:14:00,
2013-02-21 14:29:00,36.0,21.4,29.97,NW,315,7.3,-999.0,55,-99.99,,,0.00,Acu-Link.com,2013-02-21 19:29:00,
2013-02-21 14:44:00,36.1,21.9,29.94,North,0,5.8,-999.0,56,-99.99,,,0.00,Acu-Link.com,2013-02-21 19:44:00,
2013-02-21 14:59:00,36.1,21.9,29.93,NNE,22,4.7,-999.0,56,-99.99,,,0.00,Acu-Link.com,2013-02-21 19:59:00,
2013-02-21 15:14:00,36.0,21.4,29.92,NNE,22,4.2,-999.0,55,-99.99,,,0.00,Acu-Link.com,2013-02-21 20:14:00,
2013-02-21 15:30:00,36.3,21.7,29.91,ENE,67,4.7,-999.0,55,-99.99,,,0.00,Acu-Link.com,2013-02-21 20:30:00,
2013-02-21 15:45:00,36.5,21.9,29.89,ENE,67,7.8,-999.0,55,-99.99,,,0.00,Acu-Link.com,2013-02-21 20:45:00,
2013-02-21 16:00:00,36.3,21.7,29.88,NNE,22,6.3,-999.0,55,-99.99,,,0.00,Acu-Link.com,2013-02-21 21:00:00,
2013-02-21 16:15:00,36.3,21.7,29.88,ENE,67,8.9,-999.0,55,-99.99,,,0.00,Acu-Link.com,2013-02-21 21:15:00,
2013-02-21 16:30:00,36.3,21.3,29.89,NE,45,3.2,-999.0,54,-99.99,,,0.00,Acu-Link.com,2013-02-21 21:30:00,
2013-02-21 16:45:00,36.0,21.4,29.88,East,90,5.3,-999.0,55,-99.99,,,0.00,Acu-Link.com,2013-02-21 21:45:00,
2013-02-21 17:00:00,36.0,21.4,29.89,ESE,112,3.7,-999.0,55,-99.99,,,0.00,Acu-Link.com,2013-02-21 22:00:00,
2013-02-21 17:15:00,36.0,21.4,29.89,NNW,337,4.2,-999.0,55,-99.99,,,0.00,Acu-Link.com,2013-02-21 22:15:00,
2013-02-21 17:31:00,35.8,21.2,29.89,NE,45,3.7,-999.0,55,-99.99,,,0.00,Acu-Link.com,2013-02-21 22:31:00,
2013-02-21 17:46:00,35.6,21.5,29.86,ENE,67,6.8,-999.0,56,-99.99,,,0.00,Acu-Link.com,2013-02-21 22:46:00,
2013-02-21 18:01:00,35.6,21.5,29.88,NNE,22,6.3,-999.0,56,-99.99,,,0.00,Acu-Link.com,2013-02-21 23:01:00,
2013-02-21 18:16:00,35.6,21.5,29.88,ENE,67,4.7,-999.0,56,-99.99,,,0.00,Acu-Link.com,2013-02-21 23:16:00,
2013-02-21 18:31:00,35.2,21.5,29.88,East,90,6.3,-999.0,57,-99.99,,,0.00,Acu-Link.com,2013-02-21 23:31:00,
2013-02-21 18:46:00,34.9,22.0,29.89,ENE,67,6.3,-999.0,59,-99.99,,,0.00,Acu-Link.com,2013-02-21 23:46:00,
2013-02-21 19:01:00,34.5,23.6,29.90,ENE,67,4.7,-999.0,64,-99.99,,,0.00,Acu-Link.com,2013-02-22 00:01:00,
2013-02-21 19:16:00,34.0,23.9,29.90,WNW,292,3.7,-999.0,66,-99.99,,,0.00,Acu-Link.com,2013-02-22 00:16:00,
2013-02-21 19:31:00,33.8,23.7,29.92,ESE,112,3.2,-999.0,66,-99.99,,,0.00,Acu-Link.com,2013-02-22 00:31:00,
2013-02-21 19:47:00,33.3,24.6,29.92,ENE,67,7.8,-999.0,70,-99.99,,,0.00,Acu-Link.com,2013-02-22 00:47:00,
2013-02-21 20:02:00,32.9,24.9,29.94,NE,45,3.7,-999.0,72,-99.99,,,0.00,Acu-Link.com,2013-02-22 01:02:00,
2013-02-21 20:17:00,32.7,24.4,29.93,East,90,5.3,-999.0,71,-99.99,,,0.00,Acu-Link.com,2013-02-22 01:17:00,
2013-02-21 20:33:00,32.5,24.5,29.89,NNE,22,8.3,-999.0,72,-99.99,,,0.00,Acu-Link.com,2013-02-22 01:33:00,
2013-02-21 20:48:00,32.0,25.3,29.89,NE,45,4.7,-999.0,76,-99.99,,,0.00,Acu-Link.com,2013-02-22 01:48:00,
2013-02-21 21:03:00,31.6,25.5,29.89,NE,45,4.2,-999.0,78,-99.99,,,0.00,Acu-Link.com,2013-02-22 02:03:00,
2013-02-21 21:18:00,31.5,24.8,29.89,NE,45,4.7,-999.0,76,-99.99,,,0.00,Acu-Link.com,2013-02-22 02:18:00,
2013-02-21 21:34:00,31.3,25.3,29.88,NE,45,6.3,-999.0,78,-99.99,,,0.00,Acu-Link.com,2013-02-22 02:34:00,
2013-02-21 21:49:00,30.9,26.9,29.88,NE,45,5.8,-999.0,85,-99.99,,,0.00,Acu-Link.com,2013-02-22 02:49:00,
2013-02-21 22:04:00,30.7,27.3,29.86,NE,45,6.8,-999.0,87,-99.99,,,0.02,Acu-Link.com,2013-02-22 03:04:00,
2013-02-21 22:19:00,30.7,27.6,29.85,ENE,67,4.7,-999.0,88,-99.99,,,0.02,Acu-Link.com,2013-02-22 03:19:00,
2013-02-21 22:34:00,30.6,27.8,29.85,South,180,4.2,-999.0,89,-99.99,,,0.02,Acu-Link.com,2013-02-22 03:34:00,
2013-02-21 22:50:00,30.6,28.0,29.83,SSE,157,3.7,-999.0,90,-99.99,,,0.02,Acu-Link.com,2013-02-22 03:50:00,
2013-02-21 23:05:00,30.6,28.3,29.82,NE,45,4.7,-999.0,91,-99.99,,,0.02,Acu-Link.com,2013-02-22 04:05:00,
2013-02-21 23:20:00,30.4,28.4,29.81,NNE,22,3.2,-999.0,92,-99.99,,,0.02,Acu-Link.com,2013-02-22 04:20:00,
2013-02-21 23:35:00,30.6,28.3,29.84,SSE,157,5.8,-999.0,91,-99.99,,,0.02,Acu-Link.com,2013-02-22 04:35:00,
2013-02-21 23:50:00,30.6,28.8,29.79,East,90,2.7,-999.0,93,-99.99,,,0.02,Acu-Link.com,2013-02-22 04:50:00,